Всё
Hay Airport (Hay, New South Wales) HXX Погода
|
Hay, New South Wales (HXX / YHAY)
Безоблачно
Легкий ветер |
|
17 °C |
There is no TAF data available at HXX or any nearby airports.
Недавняя история METAR для HXX
| Date | Time (AEST) | Flight Rules | Wind Dir. | Speed | Type | Height AGL (ft) | Visibility | Temp (°C) | Temp (°F) | Dew Point (°C) | Dew Point (°F) | Rel. Humid. | Pressure | Density Altitude | Remarks |
|---|---|---|---|---|---|---|---|---|---|---|---|---|---|---|---|
| 09-май | 11:00 | n/a | 180° | 9 kt | Missing | 17° | 62° | 9° | 48° | 59% | 1027 mb | 138 ft | |||
| 09-май | 10:00 | n/a | 190° | 9 kt | Missing | 15° | 59° | 10° | 50° | 72% | 1028 mb | -132 ft | |||
| 09-май | 09:00 | n/a | 200° | 10 kt | Missing | 12° | 53° | 11° | 51° | 94% | 1028 mb | -492 ft | |||
| 09-май | 08:00 | n/a | 220° | 6 kt | Missing | 8° | 46° | 8° | 46° | 100% | 1027 mb | -942 ft | |||
| 09-май | 07:00 | n/a | 240° | 5 kt | Missing | 4° | 39° | 4° | 39° | 100% | 1026 mb | -1,393 ft | |||
| 09-май | 06:00 | n/a | 250° | 4 kt | Missing | 4° | 39° | 4° | 39° | 100% | 1026 mb | -1,393 ft | |||
| 09-май | 05:00 | n/a | 230° | 6 kt | Missing | 6° | 42° | 6° | 42° | 100% | 1025 mb | -1,123 ft | |||
| 09-май | 04:00 | n/a | 240° | 5 kt | Missing | 6° | 42° | 6° | 42° | 100% | 1025 mb | -1,123 ft | |||
| 09-май | 03:00 | n/a | 240° | 6 kt | Missing | 7° | 44° | 7° | 44° | 100% | 1026 mb | -1,033 ft | |||
| 09-май | 02:00 | n/a | 220° | 6 kt | Missing | 8° | 46° | 8° | 46° | 100% | 1025 mb | -883 ft | |||
| 09-май | 01:00 | n/a | 230° | 7 kt | Missing | 9° | 48° | 9° | 48° | 100% | 1025 mb | -763 ft | |||
| 09-май | 00:00 | n/a | 240° | 7 kt | Missing | 9° | 48° | 9° | 48° | 100% | 1025 mb | -763 ft | |||
| 08-май | 23:00 | n/a | 230° | 8 kt | Missing | 10° | 50° | 10° | 50° | 100% | 1026 mb | -673 ft | |||
| 08-май | 22:00 | n/a | 240° | 7 kt | Missing | 11° | 51° | 9° | 48° | 87% | 1026 mb | -553 ft | |||
| 08-май | 21:00 | n/a | 260° | 9 kt | Missing | 12° | 53° | 9° | 48° | 82% | 1025 mb | -403 ft | |||
| 08-май | 20:00 | n/a | 250° | 9 kt | Missing | 12° | 53° | 9° | 48° | 82% | 1025 mb | -403 ft | |||
| 08-май | 19:00 | n/a | 260° | 9 kt | Missing | 14° | 57° | 9° | 48° | 72% | 1025 mb | -163 ft | |||
| 08-май | 18:00 | n/a | 250° | 8 kt | Missing | 15° | 59° | 8° | 46° | 63% | 1024 mb | -14 ft | |||
| 08-май | 17:00 | n/a | 250° | 13 kt | Missing | 17° | 62° | 9° | 48° | 59% | 1024 mb | 226 ft | |||
| 08-май | 16:00 | n/a | 230° | 15 kt | Missing | 18° | 64° | 9° | 48° | 56% | 1024 mb | 346 ft | |||
| 08-май | 15:00 | n/a | 220° | 16 kt | Missing | 18° | 64° | 9° | 48° | 56% | 1024 mb | 346 ft | |||
| 08-май | 14:00 | n/a | 230° | 14 kt | Missing | 17° | 62° | 10° | 50° | 63% | 1024 mb | 226 ft | |||
| 08-май | 13:00 | n/a | 240° | 15 kt | Missing | 18° | 64° | 10° | 50° | 59% | 1024 mb | 346 ft | |||
| 08-май | 12:00 | n/a | 250° | 15 kt | Missing | 16° | 60° | 10° | 50° | 68% | 1025 mb | 77 ft |
Вход
| Ваш браузер не поддерживается.. обновите веб-браузер |
